sensor_id;sensor_type;location;lat;lon;timestamp;pressure;altitude;pressure_sealevel;temperature;humidity
71107;BME280;58763;47.982;11.516;2022-10-14T00:00:17;94374.06;;;12.35;84.27
71107;BME280;58763;47.982;11.516;2022-10-14T00:02:42;94374.47;;;12.23;84.74
71107;BME280;58763;47.982;11.516;2022-10-14T00:05:08;94371.56;;;12.20;85.05
71107;BME280;58763;47.982;11.516;2022-10-14T00:07:35;94368.47;;;12.08;85.50
71107;BME280;58763;47.982;11.516;2022-10-14T00:10:01;94371.78;;;12.00;85.68
71107;BME280;58763;47.982;11.516;2022-10-14T00:12:30;94370.25;;;11.94;86.27
71107;BME280;58763;47.982;11.516;2022-10-14T00:14:55;94373.66;;;11.81;86.60
71107;BME280;58763;47.982;11.516;2022-10-14T00:17:21;94369.63;;;11.78;86.75
71107;BME280;58763;47.982;11.516;2022-10-14T00:19:47;94371.63;;;11.67;87.36
71107;BME280;58763;47.982;11.516;2022-10-14T00:22:13;94374.47;;;11.52;87.69
71107;BME280;58763;47.982;11.516;2022-10-14T00:24:38;94375.56;;;11.51;87.93
71107;BME280;58763;47.982;11.516;2022-10-14T00:27:04;94375.66;;;11.41;88.22
71107;BME280;58763;47.982;11.516;2022-10-14T00:29:30;94376.94;;;11.49;87.97
71107;BME280;58763;47.982;11.516;2022-10-14T00:31:55;94377.97;;;11.53;88.06
71107;BME280;58763;47.982;11.516;2022-10-14T00:34:21;94385.53;;;11.56;87.41
71107;BME280;58763;47.982;11.516;2022-10-14T00:36:47;94383.16;;;11.49;88.02
71107;BME280;58763;47.982;11.516;2022-10-14T00:39:12;94377.97;;;11.53;87.99
71107;BME280;58763;47.982;11.516;2022-10-14T00:41:38;94371.78;;;11.52;87.96
71107;BME280;58763;47.982;11.516;2022-10-14T00:46:43;94366.91;;;11.49;88.02
71107;BME280;58763;47.982;11.516;2022-10-14T00:49:24;94382.56;;;11.57;87.68
71107;BME280;58763;47.982;11.516;2022-10-14T00:51:56;94384.09;;;11.63;87.73
71107;BME280;58763;47.982;11.516;2022-10-14T00:54:29;94388.41;;;11.69;87.02
71107;BME280;58763;47.982;11.516;2022-10-14T00:56:56;94390.53;;;11.72;86.96
71107;BME280;58763;47.982;11.516;2022-10-14T00:59:22;94393.81;;;11.69;86.74
71107;BME280;58763;47.982;11.516;2022-10-14T01:01:47;94390.84;;;11.71;86.78
71107;BME280;58763;47.982;11.516;2022-10-14T01:04:13;94390.53;;;11.72;86.41
71107;BME280;58763;47.982;11.516;2022-10-14T01:06:47;94396.00;;;11.67;86.88
71107;BME280;58763;47.982;11.516;2022-10-14T01:09:33;94395.28;;;11.57;86.73
71107;BME280;58763;47.982;11.516;2022-10-14T01:14:35;94393.56;;;11.66;86.67
71107;BME280;58763;47.982;11.516;2022-10-14T01:22:46;94395.47;;;11.65;86.74
71107;BME280;58763;47.982;11.516;2022-10-14T01:25:19;94397.66;;;11.63;86.55
71107;BME280;58763;47.982;11.516;2022-10-14T01:28:29;94399.53;;;11.63;86.65
71107;BME280;58763;47.982;11.516;2022-10-14T01:31:02;94396.28;;;11.66;86.57
71107;BME280;58763;47.982;11.516;2022-10-14T01:33:37;94393.31;;;11.67;86.88
71107;BME280;58763;47.982;11.516;2022-10-14T01:36:19;94388.16;;;11.66;87.06
71107;BME280;58763;47.982;11.516;2022-10-14T01:42:06;94387.16;;;11.28;88.87
71107;BME280;58763;47.982;11.516;2022-10-14T01:44:38;94388.38;;;11.46;87.88
71107;BME280;58763;47.982;11.516;2022-10-14T01:47:06;94383.22;;;11.44;88.55
71107;BME280;58763;47.982;11.516;2022-10-14T01:49:43;94391.59;;;11.48;88.46
71107;BME280;58763;47.982;11.516;2022-10-14T01:52:15;94392.97;;;11.45;88.38
71107;BME280;58763;47.982;11.516;2022-10-14T01:54:47;94391.84;;;11.46;88.54
71107;BME280;58763;47.982;11.516;2022-10-14T01:57:18;94389.78;;;11.38;88.79
71107;BME280;58763;47.982;11.516;2022-10-14T01:59:46;94389.63;;;11.53;88.34
71107;BME280;58763;47.982;11.516;2022-10-14T02:02:12;94390.78;;;11.47;88.88
71107;BME280;58763;47.982;11.516;2022-10-14T02:04:38;94391.00;;;11.51;88.31
71107;BME280;58763;47.982;11.516;2022-10-14T02:07:11;94394.50;;;11.51;87.89
71107;BME280;58763;47.982;11.516;2022-10-14T02:18:14;94389.88;;;11.57;87.94
71107;BME280;58763;47.982;11.516;2022-10-14T02:20:48;94394.69;;;11.60;88.29
71107;BME280;58763;47.982;11.516;2022-10-14T02:23:24;94396.31;;;11.61;88.13
71107;BME280;58763;47.982;11.516;2022-10-14T02:25:53;94395.50;;;11.60;87.80
71107;BME280;58763;47.982;11.516;2022-10-14T02:28:22;94395.75;;;11.69;87.52
71107;BME280;58763;47.982;11.516;2022-10-14T02:30:50;94391.19;;;11.59;87.86
71107;BME280;58763;47.982;11.516;2022-10-14T02:33:20;94387.91;;;11.62;87.56
71107;BME280;58763;47.982;11.516;2022-10-14T02:35:48;94397.09;;;11.66;87.76
71107;BME280;58763;47.982;11.516;2022-10-14T02:38:16;94397.13;;;11.61;87.70
71107;BME280;58763;47.982;11.516;2022-10-14T02:40:46;94391.16;;;11.64;87.48
71107;BME280;58763;47.982;11.516;2022-10-14T02:43:13;94395.75;;;11.64;87.43
71107;BME280;58763;47.982;11.516;2022-10-14T02:45:41;94397.41;;;11.60;87.73
71107;BME280;58763;47.982;11.516;2022-10-14T02:48:07;94393.56;;;11.66;87.63
71107;BME280;58763;47.982;11.516;2022-10-14T02:50:33;94395.91;;;11.77;87.21
71107;BME280;58763;47.982;11.516;2022-10-14T02:52:59;94404.00;;;11.83;86.89
71107;BME280;58763;47.982;11.516;2022-10-14T02:55:24;94393.25;;;11.72;87.08
71107;BME280;58763;47.982;11.516;2022-10-14T02:57:49;94398.56;;;11.83;86.93
71107;BME280;58763;47.982;11.516;2022-10-14T03:00:15;94388.09;;;11.76;86.91
71107;BME280;58763;47.982;11.516;2022-10-14T03:02:41;94392.44;;;11.72;87.14
71107;BME280;58763;47.982;11.516;2022-10-14T03:05:07;94388.97;;;11.66;87.53
71107;BME280;58763;47.982;11.516;2022-10-14T03:07:33;94394.94;;;11.68;87.47
71107;BME280;58763;47.982;11.516;2022-10-14T03:09:59;94387.84;;;11.72;87.42
71107;BME280;58763;47.982;11.516;2022-10-14T03:12:24;94392.16;;;11.73;87.43
71107;BME280;58763;47.982;11.516;2022-10-14T03:14:50;94387.25;;;11.75;87.43
71107;BME280;58763;47.982;11.516;2022-10-14T03:17:16;94388.34;;;11.74;86.98
71107;BME280;58763;47.982;11.516;2022-10-14T03:19:42;94392.94;;;11.74;87.18
71107;BME280;58763;47.982;11.516;2022-10-14T03:22:07;94393.81;;;11.69;87.22
71107;BME280;58763;47.982;11.516;2022-10-14T03:24:33;94388.94;;;11.71;87.07
71107;BME280;58763;47.982;11.516;2022-10-14T03:26:58;94385.13;;;11.72;87.59
71107;BME280;58763;47.982;11.516;2022-10-14T03:29:24;94380.31;;;11.64;87.40
71107;BME280;58763;47.982;11.516;2022-10-14T03:31:50;94387.34;;;11.65;87.28
71107;BME280;58763;47.982;11.516;2022-10-14T03:34:15;94383.63;;;11.56;87.69
71107;BME280;58763;47.982;11.516;2022-10-14T03:36:41;94386.31;;;11.61;87.97
71107;BME280;58763;47.982;11.516;2022-10-14T03:39:08;94384.41;;;11.62;87.80
71107;BME280;58763;47.982;11.516;2022-10-14T03:41:34;94386.53;;;11.65;87.42
71107;BME280;58763;47.982;11.516;2022-10-14T03:43:59;94377.38;;;11.61;87.60
71107;BME280;58763;47.982;11.516;2022-10-14T03:46:25;94384.97;;;11.59;87.49
71107;BME280;58763;47.982;11.516;2022-10-14T03:48:51;94384.72;;;11.55;87.81
71107;BME280;58763;47.982;11.516;2022-10-14T03:51:16;94388.53;;;11.54;88.11
71107;BME280;58763;47.982;11.516;2022-10-14T03:53:42;94383.97;;;11.50;88.17
71107;BME280;58763;47.982;11.516;2022-10-14T03:56:07;94382.34;;;11.49;87.90
71107;BME280;58763;47.982;11.516;2022-10-14T03:58:33;94376.25;;;11.38;88.47
71107;BME280;58763;47.982;11.516;2022-10-14T04:00:58;94381.94;;;11.37;88.61
71107;BME280;58763;47.982;11.516;2022-10-14T04:03:24;94375.13;;;11.39;88.48
71107;BME280;58763;47.982;11.516;2022-10-14T04:05:49;94378.44;;;11.36;88.80
71107;BME280;58763;47.982;11.516;2022-10-14T04:08:15;94374.44;;;11.29;88.55
71107;BME280;58763;47.982;11.516;2022-10-14T04:10:40;94364.47;;;11.24;88.99
71107;BME280;58763;47.982;11.516;2022-10-14T04:13:07;94367.69;;;11.26;88.71
71107;BME280;58763;47.982;11.516;2022-10-14T04:15:34;94363.88;;;11.27;88.58
71107;BME280;58763;47.982;11.516;2022-10-14T04:18:00;94362.50;;;11.30;88.57
71107;BME280;58763;47.982;11.516;2022-10-14T04:20:26;94359.06;;;11.24;88.65
71107;BME280;58763;47.982;11.516;2022-10-14T04:22:51;94355.31;;;11.20;88.34
71107;BME280;58763;47.982;11.516;2022-10-14T04:25:17;94353.16;;;11.17;88.78
71107;BME280;58763;47.982;11.516;2022-10-14T04:27:44;94361.00;;;11.19;88.17
71107;BME280;58763;47.982;11.516;2022-10-14T04:30:10;94355.88;;;11.17;88.40
71107;BME280;58763;47.982;11.516;2022-10-14T04:32:36;94353.75;;;11.09;88.31
71107;BME280;58763;47.982;11.516;2022-10-14T04:35:01;94349.19;;;11.04;88.76
71107;BME280;58763;47.982;11.516;2022-10-14T04:37:28;94349.53;;;10.98;88.95
71107;BME280;58763;47.982;11.516;2022-10-14T04:39:53;94349.34;;;10.89;89.03
71107;BME280;58763;47.982;11.516;2022-10-14T04:42:19;94347.19;;;10.86;89.39
71107;BME280;58763;47.982;11.516;2022-10-14T04:44:45;94342.59;;;10.87;89.87
71107;BME280;58763;47.982;11.516;2022-10-14T04:47:10;94339.03;;;10.91;89.59
71107;BME280;58763;47.982;11.516;2022-10-14T04:49:35;94333.91;;;10.90;89.99
71107;BME280;58763;47.982;11.516;2022-10-14T04:52:01;94338.78;;;10.88;89.75
71107;BME280;58763;47.982;11.516;2022-10-14T04:54:27;94331.13;;;11.00;89.54
71107;BME280;58763;47.982;11.516;2022-10-14T04:56:53;94319.59;;;10.89;89.50
71107;BME280;58763;47.982;11.516;2022-10-14T04:59:19;94319.25;;;10.96;89.13
71107;BME280;58763;47.982;11.516;2022-10-14T05:01:44;94329.03;;;10.92;89.31
71107;BME280;58763;47.982;11.516;2022-10-14T05:04:10;94317.63;;;10.95;89.44
71107;BME280;58763;47.982;11.516;2022-10-14T05:06:35;94322.97;;;11.05;89.18
71107;BME280;58763;47.982;11.516;2022-10-14T05:09:03;94317.59;;;11.00;89.00
71107;BME280;58763;47.982;11.516;2022-10-14T05:11:29;94313.03;;;10.95;89.06
71107;BME280;58763;47.982;11.516;2022-10-14T05:13:55;94307.09;;;10.93;89.10
71107;BME280;58763;47.982;11.516;2022-10-14T05:16:20;94310.03;;;10.97;88.53
71107;BME280;58763;47.982;11.516;2022-10-14T05:18:46;94308.13;;;10.97;88.65
71107;BME280;58763;47.982;11.516;2022-10-14T05:21:11;94312.75;;;10.97;88.91
71107;BME280;58763;47.982;11.516;2022-10-14T05:23:37;94302.72;;;10.97;88.97
71107;BME280;58763;47.982;11.516;2022-10-14T05:26:02;94304.31;;;11.03;88.66
71107;BME280;58763;47.982;11.516;2022-10-14T05:28:28;94306.69;;;11.10;88.41
71107;BME280;58763;47.982;11.516;2022-10-14T05:30:54;94311.91;;;11.01;87.87
71107;BME280;58763;47.982;11.516;2022-10-14T05:33:20;94304.06;;;11.00;88.04
71107;BME280;58763;47.982;11.516;2022-10-14T05:35:45;94307.03;;;11.03;88.40
71107;BME280;58763;47.982;11.516;2022-10-14T05:38:11;94303.22;;;11.04;88.26
71107;BME280;58763;47.982;11.516;2022-10-14T05:40:38;94302.69;;;11.02;88.40
71107;BME280;58763;47.982;11.516;2022-10-14T05:43:03;94299.38;;;11.10;88.05
71107;BME280;58763;47.982;11.516;2022-10-14T05:45:29;94300.41;;;11.15;87.81
71107;BME280;58763;47.982;11.516;2022-10-14T05:47:54;94302.22;;;11.24;87.49
71107;BME280;58763;47.982;11.516;2022-10-14T05:50:20;94303.88;;;11.20;87.08
71107;BME280;58763;47.982;11.516;2022-10-14T05:52:46;94304.97;;;11.19;87.78
71107;BME280;58763;47.982;11.516;2022-10-14T05:55:11;94301.69;;;11.22;87.08
71107;BME280;58763;47.982;11.516;2022-10-14T05:57:37;94303.28;;;11.23;86.71
71107;BME280;58763;47.982;11.516;2022-10-14T06:00:03;94302.81;;;11.16;87.77
71107;BME280;58763;47.982;11.516;2022-10-14T06:02:29;94299.84;;;11.18;87.82
71107;BME280;58763;47.982;11.516;2022-10-14T06:04:55;94297.06;;;11.23;87.74
71107;BME280;58763;47.982;11.516;2022-10-14T06:07:21;94291.09;;;11.26;87.71
71107;BME280;58763;47.982;11.516;2022-10-14T06:09:46;94293.50;;;11.27;87.61
71107;BME280;58763;47.982;11.516;2022-10-14T06:12:12;94296.19;;;11.27;87.41
71107;BME280;58763;47.982;11.516;2022-10-14T06:14:38;94293.97;;;11.34;87.41
71107;BME280;58763;47.982;11.516;2022-10-14T06:17:05;94286.91;;;11.38;87.20
71107;BME280;58763;47.982;11.516;2022-10-14T06:19:31;94289.00;;;11.41;87.16
71107;BME280;58763;47.982;11.516;2022-10-14T06:21:57;94291.72;;;11.41;87.30
71107;BME280;58763;47.982;11.516;2022-10-14T06:24:22;94289.56;;;11.43;87.28
71107;BME280;58763;47.982;11.516;2022-10-14T06:26:48;94287.81;;;11.52;86.76
71107;BME280;58763;47.982;11.516;2022-10-14T06:29:14;94286.16;;;11.56;86.84
71107;BME280;58763;47.982;11.516;2022-10-14T06:31:40;94291.03;;;11.54;86.67
71107;BME280;58763;47.982;11.516;2022-10-14T06:34:06;94292.66;;;11.55;86.70
71107;BME280;58763;47.982;11.516;2022-10-14T06:36:32;94292.31;;;11.62;86.44
71107;BME280;58763;47.982;11.516;2022-10-14T06:38:58;94290.47;;;11.57;86.72
71107;BME280;58763;47.982;11.516;2022-10-14T06:41:23;94294.16;;;11.66;86.65
71107;BME280;58763;47.982;11.516;2022-10-14T06:43:49;94297.94;;;11.65;86.48
71107;BME280;58763;47.982;11.516;2022-10-14T06:46:15;94300.06;;;11.73;86.46
71107;BME280;58763;47.982;11.516;2022-10-14T06:48:41;94290.56;;;11.76;86.52
71107;BME280;58763;47.982;11.516;2022-10-14T06:51:07;94291.94;;;11.73;86.71
71107;BME280;58763;47.982;11.516;2022-10-14T06:53:33;94292.31;;;11.86;85.99
71107;BME280;58763;47.982;11.516;2022-10-14T06:56:04;94291.22;;;11.87;85.93
71107;BME280;58763;47.982;11.516;2022-10-14T06:58:31;94294.94;;;11.91;86.09
71107;BME280;58763;47.982;11.516;2022-10-14T07:01:03;94288.31;;;12.02;85.89
71107;BME280;58763;47.982;11.516;2022-10-14T07:03:30;94292.00;;;12.11;85.18
71107;BME280;58763;47.982;11.516;2022-10-14T07:05:56;94289.28;;;12.11;85.31
71107;BME280;58763;47.982;11.516;2022-10-14T07:08:21;94286.63;;;12.06;85.99
71107;BME280;58763;47.982;11.516;2022-10-14T07:10:47;94276.00;;;12.09;85.80
71107;BME280;58763;47.982;11.516;2022-10-14T07:13:13;94275.13;;;12.14;85.66
71107;BME280;58763;47.982;11.516;2022-10-14T07:15:39;94278.28;;;12.21;85.60
71107;BME280;58763;47.982;11.516;2022-10-14T07:18:05;94271.97;;;12.25;85.05
71107;BME280;58763;47.982;11.516;2022-10-14T07:20:32;94272.78;;;12.26;85.43
71107;BME280;58763;47.982;11.516;2022-10-14T07:22:58;94265.75;;;12.25;85.43
71107;BME280;58763;47.982;11.516;2022-10-14T07:25:23;94264.72;;;12.21;85.29
71107;BME280;58763;47.982;11.516;2022-10-14T07:27:50;94269.56;;;12.24;85.56
71107;BME280;58763;47.982;11.516;2022-10-14T07:30:16;94262.75;;;12.26;85.13
71107;BME280;58763;47.982;11.516;2022-10-14T07:32:42;94264.06;;;12.29;85.70
71107;BME280;58763;47.982;11.516;2022-10-14T07:35:08;94267.53;;;12.34;85.80
71107;BME280;58763;47.982;11.516;2022-10-14T07:37:33;94270.13;;;12.39;85.23
71107;BME280;58763;47.982;11.516;2022-10-14T07:39:59;94263.69;;;12.35;85.38
71107;BME280;58763;47.982;11.516;2022-10-14T07:42:25;94267.44;;;12.39;85.29
71107;BME280;58763;47.982;11.516;2022-10-14T07:44:50;94270.66;;;12.41;84.66
71107;BME280;58763;47.982;11.516;2022-10-14T07:47:18;94274.22;;;12.56;84.49
71107;BME280;58763;47.982;11.516;2022-10-14T07:49:44;94277.91;;;12.65;84.35
71107;BME280;58763;47.982;11.516;2022-10-14T07:52:09;94279.38;;;12.57;83.81
71107;BME280;58763;47.982;11.516;2022-10-14T07:54:35;94280.00;;;12.68;85.04
71107;BME280;58763;47.982;11.516;2022-10-14T07:57:00;94272.28;;;12.75;84.85
71107;BME280;58763;47.982;11.516;2022-10-14T07:59:26;94276.66;;;12.89;85.71
71107;BME280;58763;47.982;11.516;2022-10-14T08:01:52;94283.75;;;13.04;86.14
71107;BME280;58763;47.982;11.516;2022-10-14T08:04:18;94276.25;;;13.14;85.90
71107;BME280;58763;47.982;11.516;2022-10-14T08:06:46;94276.00;;;13.30;86.10
71107;BME280;58763;47.982;11.516;2022-10-14T08:09:12;94270.97;;;13.50;85.22
71107;BME280;58763;47.982;11.516;2022-10-14T08:11:38;94273.19;;;13.75;82.16
71107;BME280;58763;47.982;11.516;2022-10-14T08:14:03;94275.78;;;13.94;81.64
71107;BME280;58763;47.982;11.516;2022-10-14T08:16:32;94268.81;;;14.15;80.69
71107;BME280;58763;47.982;11.516;2022-10-14T08:19:00;94259.28;;;14.40;80.81
71107;BME280;58763;47.982;11.516;2022-10-14T08:21:26;94259.28;;;14.53;79.48
71107;BME280;58763;47.982;11.516;2022-10-14T08:23:52;94266.72;;;14.84;77.63
71107;BME280;58763;47.982;11.516;2022-10-14T08:26:20;94260.38;;;14.97;77.41
71107;BME280;58763;47.982;11.516;2022-10-14T08:28:48;94260.09;;;15.29;76.92
71107;BME280;58763;47.982;11.516;2022-10-14T08:31:14;94261.53;;;15.57;77.44
71107;BME280;58763;47.982;11.516;2022-10-14T08:33:39;94270.34;;;15.94;75.30
71107;BME280;58763;47.982;11.516;2022-10-14T08:36:05;94265.25;;;16.09;74.03
71107;BME280;58763;47.982;11.516;2022-10-14T08:38:31;94265.72;;;16.20;73.55
71107;BME280;58763;47.982;11.516;2022-10-14T08:49:28;94264.75;;;16.16;70.36
71107;BME280;58763;47.982;11.516;2022-10-14T08:52:00;94265.72;;;16.11;69.96
71107;BME280;58763;47.982;11.516;2022-10-14T08:56:56;94264.28;;;16.05;70.33
71107;BME280;58763;47.982;11.516;2022-10-14T08:59:22;94255.94;;;16.10;70.26
71107;BME280;58763;47.982;11.516;2022-10-14T09:01:52;94258.50;;;16.07;70.81
71107;BME280;58763;47.982;11.516;2022-10-14T09:04:20;94265.91;;;16.15;70.69
71107;BME280;58763;47.982;11.516;2022-10-14T09:06:47;94257.06;;;16.18;70.32
71107;BME280;58763;47.982;11.516;2022-10-14T09:09:25;94258.84;;;16.14;68.62
71107;BME280;58763;47.982;11.516;2022-10-14T09:11:58;94261.28;;;16.24;69.07
71107;BME280;58763;47.982;11.516;2022-10-14T09:14:29;94259.66;;;16.23;67.90
71107;BME280;58763;47.982;11.516;2022-10-14T09:17:03;94261.28;;;16.24;67.18
71107;BME280;58763;47.982;11.516;2022-10-14T09:19:32;94266.72;;;16.32;66.58
71107;BME280;58763;47.982;11.516;2022-10-14T09:21:59;94259.03;;;16.43;67.19
71107;BME280;58763;47.982;11.516;2022-10-14T09:24:34;94254.56;;;16.55;64.73
71107;BME280;58763;47.982;11.516;2022-10-14T09:27:12;94248.13;;;16.69;65.95
71107;BME280;58763;47.982;11.516;2022-10-14T09:32:11;94253.13;;;17.01;63.67
71107;BME280;58763;47.982;11.516;2022-10-14T09:34:49;94256.94;;;17.17;64.02
71107;BME280;58763;47.982;11.516;2022-10-14T09:37:33;94254.31;;;17.38;61.62
71107;BME280;58763;47.982;11.516;2022-10-14T09:42:35;94245.47;;;17.41;59.89
71107;BME280;58763;47.982;11.516;2022-10-14T09:45:09;94251.25;;;17.56;60.17
71107;BME280;58763;47.982;11.516;2022-10-14T09:50:12;94244.69;;;17.86;59.88
71107;BME280;58763;47.982;11.516;2022-10-14T09:52:48;94232.63;;;17.87;58.13
71107;BME280;58763;47.982;11.516;2022-10-14T09:55:18;94237.88;;;17.92;58.05
71107;BME280;58763;47.982;11.516;2022-10-14T09:57:46;94235.59;;;18.03;58.29
71107;BME280;58763;47.982;11.516;2022-10-14T10:00:25;94233.72;;;18.16;58.54
71107;BME280;58763;47.982;11.516;2022-10-14T10:02:52;94236.69;;;18.02;58.86
71107;BME280;58763;47.982;11.516;2022-10-14T10:05:30;94233.97;;;18.02;58.04
71107;BME280;58763;47.982;11.516;2022-10-14T10:10:31;94234.94;;;18.06;55.06
71107;BME280;58763;47.982;11.516;2022-10-14T10:12:59;94232.38;;;18.01;54.31
71107;BME280;58763;47.982;11.516;2022-10-14T10:15:25;94225.38;;;18.12;53.61
71107;BME280;58763;47.982;11.516;2022-10-14T10:17:51;94231.78;;;18.16;53.75
71107;BME280;58763;47.982;11.516;2022-10-14T10:20:25;94228.53;;;18.23;54.09
71107;BME280;58763;47.982;11.516;2022-10-14T10:23:30;94234.97;;;18.27;54.63
71107;BME280;58763;47.982;11.516;2022-10-14T10:26:13;94227.34;;;18.32;54.38
71107;BME280;58763;47.982;11.516;2022-10-14T10:28:43;94215.38;;;18.45;55.04
71107;BME280;58763;47.982;11.516;2022-10-14T10:31:29;94211.63;;;18.50;54.81
71107;BME280;58763;47.982;11.516;2022-10-14T10:34:33;94202.63;;;18.49;54.19
71107;BME280;58763;47.982;11.516;2022-10-14T10:37:18;94205.06;;;18.42;53.87
71107;BME280;58763;47.982;11.516;2022-10-14T10:42:38;94192.16;;;18.43;55.64
71107;BME280;58763;47.982;11.516;2022-10-14T10:48:28;94194.88;;;18.51;55.58
71107;BME280;58763;47.982;11.516;2022-10-14T11:02:19;94192.28;;;18.55;56.24
71107;BME280;58763;47.982;11.516;2022-10-14T11:05:11;94190.09;;;18.40;55.18
71107;BME280;58763;47.982;11.516;2022-10-14T11:08:12;94183.16;;;18.42;55.64
71107;BME280;58763;47.982;11.516;2022-10-14T11:11:19;94180.59;;;18.37;54.56
71107;BME280;58763;47.982;11.516;2022-10-14T11:14:17;94171.31;;;18.30;54.16
71107;BME280;58763;47.982;11.516;2022-10-14T11:19:42;94171.28;;;18.38;52.98
71107;BME280;58763;47.982;11.516;2022-10-14T11:30:50;94160.63;;;18.45;53.86
71107;BME280;58763;47.982;11.516;2022-10-14T11:33:32;94155.94;;;18.46;53.02
71107;BME280;58763;47.982;11.516;2022-10-14T11:42:17;94147.75;;;18.58;54.60
71107;BME280;58763;47.982;11.516;2022-10-14T11:47:44;94140.63;;;18.66;52.56
71107;BME280;58763;47.982;11.516;2022-10-14T11:50:15;94135.03;;;18.74;51.92
71107;BME280;58763;47.982;11.516;2022-10-14T11:52:52;94138.84;;;18.82;52.62
71107;BME280;58763;47.982;11.516;2022-10-14T11:55:25;94136.09;;;18.82;53.88
71107;BME280;58763;47.982;11.516;2022-10-14T11:58:05;94131.88;;;18.84;55.70
71107;BME280;58763;47.982;11.516;2022-10-14T12:00:53;94133.16;;;18.87;53.53
71107;BME280;58763;47.982;11.516;2022-10-14T12:05:58;94130.63;;;18.82;51.98
71107;BME280;58763;47.982;11.516;2022-10-14T12:08:33;94116.47;;;18.80;53.84
71107;BME280;58763;47.982;11.516;2022-10-14T12:13:43;94120.34;;;18.79;55.47
71107;BME280;58763;47.982;11.516;2022-10-14T12:16:20;94112.59;;;18.81;54.17
71107;BME280;58763;47.982;11.516;2022-10-14T12:18:49;94123.06;;;18.79;54.54
71107;BME280;58763;47.982;11.516;2022-10-14T12:23:46;94110.06;;;18.76;53.67
71107;BME280;58763;47.982;11.516;2022-10-14T12:28:46;94100.13;;;18.71;54.03
71107;BME280;58763;47.982;11.516;2022-10-14T12:31:33;94101.00;;;18.63;55.54
71107;BME280;58763;47.982;11.516;2022-10-14T12:36:45;94105.00;;;18.66;56.14
71107;BME280;58763;47.982;11.516;2022-10-14T12:41:55;94092.47;;;18.65;55.19
71107;BME280;58763;47.982;11.516;2022-10-14T12:44:43;94086.59;;;18.54;55.59
71107;BME280;58763;47.982;11.516;2022-10-14T12:47:18;94079.06;;;18.51;55.42
71107;BME280;58763;47.982;11.516;2022-10-14T12:49:52;94079.44;;;18.61;53.99
71107;BME280;58763;47.982;11.516;2022-10-14T12:52:44;94082.44;;;18.69;54.93
71107;BME280;58763;47.982;11.516;2022-10-14T12:55:16;94084.72;;;18.67;55.53
71107;BME280;58763;47.982;11.516;2022-10-14T12:57:42;94085.16;;;18.69;55.76
71107;BME280;58763;47.982;11.516;2022-10-14T13:00:28;94081.75;;;18.72;55.80
71107;BME280;58763;47.982;11.516;2022-10-14T13:02:59;94081.72;;;18.59;56.52
71107;BME280;58763;47.982;11.516;2022-10-14T13:05:36;94077.38;;;18.58;56.62
71107;BME280;58763;47.982;11.516;2022-10-14T13:16:07;94076.00;;;18.52;57.08
71107;BME280;58763;47.982;11.516;2022-10-14T13:21:04;94075.66;;;18.54;55.73
71107;BME280;58763;47.982;11.516;2022-10-14T13:23:44;94072.91;;;18.33;53.83
71107;BME280;58763;47.982;11.516;2022-10-14T13:31:39;94065.31;;;18.18;53.98
71107;BME280;58763;47.982;11.516;2022-10-14T13:37:55;94062.22;;;17.87;55.71
71107;BME280;58763;47.982;11.516;2022-10-14T13:40:24;94073.16;;;17.87;56.25
71107;BME280;58763;47.982;11.516;2022-10-14T13:42:59;94075.16;;;17.78;55.80
71107;BME280;58763;47.982;11.516;2022-10-14T13:45:53;94082.81;;;17.84;56.72
71107;BME280;58763;47.982;11.516;2022-10-14T13:48:26;94095.31;;;17.36;59.41
71107;BME280;58763;47.982;11.516;2022-10-14T13:51:06;94095.84;;;16.91;61.44
71107;BME280;58763;47.982;11.516;2022-10-14T13:53:51;94097.16;;;16.77;63.26
71107;BME280;58763;47.982;11.516;2022-10-14T13:56:30;94098.66;;;16.66;64.06
71107;BME280;58763;47.982;11.516;2022-10-14T13:58:57;94101.69;;;16.64;64.43
71107;BME280;58763;47.982;11.516;2022-10-14T14:01:36;94101.25;;;16.02;66.71
71107;BME280;58763;47.982;11.516;2022-10-14T14:04:03;94102.47;;;15.45;70.44
71107;BME280;58763;47.982;11.516;2022-10-14T14:06:29;94104.03;;;15.37;72.05
71107;BME280;58763;47.982;11.516;2022-10-14T14:09:03;94099.50;;;14.85;74.39
71107;BME280;58763;47.982;11.516;2022-10-14T14:11:34;94098.66;;;14.76;74.22
71107;BME280;58763;47.982;11.516;2022-10-14T14:16:31;94102.09;;;14.59;76.16
71107;BME280;58763;47.982;11.516;2022-10-14T14:18:58;94103.47;;;14.70;76.32
71107;BME280;58763;47.982;11.516;2022-10-14T14:21:26;94100.28;;;14.77;75.64
71107;BME280;58763;47.982;11.516;2022-10-14T14:23:57;94095.72;;;14.64;76.88
71107;BME280;58763;47.982;11.516;2022-10-14T14:26:35;94102.88;;;14.82;76.35
71107;BME280;58763;47.982;11.516;2022-10-14T14:29:16;94090.63;;;15.10;75.62
71107;BME280;58763;47.982;11.516;2022-10-14T14:31:43;94075.44;;;15.17;75.76
71107;BME280;58763;47.982;11.516;2022-10-14T14:34:17;94076.94;;;15.32;75.27
71107;BME280;58763;47.982;11.516;2022-10-14T14:36:44;94080.69;;;15.53;74.29
71107;BME280;58763;47.982;11.516;2022-10-14T14:39:20;94086.94;;;15.62;74.06
71107;BME280;58763;47.982;11.516;2022-10-14T14:41:52;94083.44;;;15.70;73.65
71107;BME280;58763;47.982;11.516;2022-10-14T14:44:22;94081.19;;;15.72;73.18
71107;BME280;58763;47.982;11.516;2022-10-14T14:46:50;94075.75;;;15.72;72.53
71107;BME280;58763;47.982;11.516;2022-10-14T14:49:20;94067.56;;;15.72;73.13
71107;BME280;58763;47.982;11.516;2022-10-14T14:51:46;94062.59;;;15.83;72.17
71107;BME280;58763;47.982;11.516;2022-10-14T14:54:20;94066.13;;;15.83;72.41
71107;BME280;58763;47.982;11.516;2022-10-14T14:57:01;94062.13;;;15.81;73.05
71107;BME280;58763;47.982;11.516;2022-10-14T14:59:35;94058.75;;;15.93;71.92
71107;BME280;58763;47.982;11.516;2022-10-14T15:02:09;94061.63;;;15.87;72.41